Skyline Princess — WDB7684 — position and weather

sailwx.info

Track history (hours):
 
Tides and Currents Weather Stations Pressure Air Temp Water Temp Dewpoint Dewpoint Depression Visibility Wind Speed Wind Dir Waves Ship Positions

Skyline Princess

Owner: Skyline Cruise Lines Inc, Flushing, NY. More information available from US FCC via Universal Licensing System and Coast Guard Vessel Documentation Center.

Last reported at 2018-Jan-01 06:00 UTC. Time now 2018-Jan-23 16:09 UTC.
Position N 40°45' W 073°58'.
Warning: this ship's position is 22 days out of date.

MMSI: 366946170.

Date/timePositionNaut miles runAvg speedWind from/ knotsBaromVisibWave heightAir tempDewpointWater temp
2018-Jan-01 06:00N 40°45' W 073°58'3 5.4
2018-Jan-01 05:30N 40°43' W 073°59'2 4.7
2018-Jan-01 05:00N 40°41' W 074°02'4 3.9
2018-Jan-01 03:57N 40°44' W 073°58'1 1.1
2018-Jan-01 03:30N 40°45' W 073°58'  
2017-Dec-23 03:55N 40°46' W 073°51'3 7.3
2017-Dec-23 03:28N 40°48' W 073°54'510.3
2017-Dec-23 03:00N 40°45' W 073°58'4 8.2
2017-Dec-23 02:31N 40°42' W 074°02'1 2.5
2017-Dec-23 02:01N 40°42' W 074°00'3 5.4
2017-Dec-23 01:30N 40°44' W 073°58'3 5.7
2017-Dec-23 00:59N 40°47' W 073°56'3 5.9
2017-Dec-23 00:30N 40°48' W 073°52'2 1.0
2017-Dec-22 22:02N 40°46' W 073°51'0 0.0
2017-Dec-22 21:59N 40°46' W 073°51'0 0.0
2017-Dec-22 20:56N 40°46' W 073°51'0 0.0
2017-Dec-22 20:19N 40°46' W 073°51'0 0.0
2017-Dec-22 19:55N 40°46' W 073°51'0 0.0
2017-Dec-22 19:28N 40°46' W 073°51'0 0.0
2017-Dec-22 18:51N 40°46' W 073°51'0 0.0
2017-Dec-22 18:29N 40°46' W 073°51'0 0.0
2017-Dec-22 17:59N 40°46' W 073°51'0 0.0
2017-Dec-22 17:19N 40°46' W 073°51'  
Track history (hours):
 
Tides and Currents Weather Stations Pressure Air Temp Water Temp Dewpoint Dewpoint Depression Visibility Wind Speed Wind Dir Waves Ship Positions

Skyline Princess

Owner: Skyline Cruise Lines Inc, Flushing, NY. More information available from US FCC via Universal Licensing System and Coast Guard Vessel Documentation Center.

Last reported at 2018-Jan-01 06:00 UTC. Time now 2018-Jan-23 16:09 UTC.
Position N 40°45' W 073°58'.
Warning: this ship's position is 22 days out of date.

MMSI: 366946170.

Date/timePositionNaut miles runAvg speedWind from/ knotsBaromVisibWave heightAir tempDewpointWater temp
2018-Jan-01 06:00N 40°45' W 073°58'3 5.4
2018-Jan-01 05:30N 40°43' W 073°59'2 4.7
2018-Jan-01 05:00N 40°41' W 074°02'4 3.9
2018-Jan-01 03:57N 40°44' W 073°58'1 1.1
2018-Jan-01 03:30N 40°45' W 073°58'  
2017-Dec-23 03:55N 40°46' W 073°51'3 7.3
2017-Dec-23 03:28N 40°48' W 073°54'510.3
2017-Dec-23 03:00N 40°45' W 073°58'4 8.2
2017-Dec-23 02:31N 40°42' W 074°02'1 2.5
2017-Dec-23 02:01N 40°42' W 074°00'3 5.4
2017-Dec-23 01:30N 40°44' W 073°58'3 5.7
2017-Dec-23 00:59N 40°47' W 073°56'3 5.9
2017-Dec-23 00:30N 40°48' W 073°52'2 1.0
2017-Dec-22 22:02N 40°46' W 073°51'0 0.0
2017-Dec-22 21:59N 40°46' W 073°51'0 0.0
2017-Dec-22 20:56N 40°46' W 073°51'0 0.0
2017-Dec-22 20:19N 40°46' W 073°51'0 0.0
2017-Dec-22 19:55N 40°46' W 073°51'0 0.0
2017-Dec-22 19:28N 40°46' W 073°51'0 0.0
2017-Dec-22 18:51N 40°46' W 073°51'0 0.0
2017-Dec-22 18:29N 40°46' W 073°51'0 0.0
2017-Dec-22 17:59N 40°46' W 073°51'0 0.0
2017-Dec-22 17:19N 40°46' W 073°51'  

Dump ship's entire track history